Terminal Aerodrome Forecast
Issued by NWS

Home | Current Version | Previous Version | Text Only | Print | Product List | Glossary Off
Versions: 1 2 3 4 5 6 7 8 9 10 11 12 13 14 15 16 17

000
FTUS43 KMPX 210300 AAA
TAFAXN
TAF AMD
KAXN 210307Z 2103/2124 15007KT P6SM SCT250
     FM210800 23006KT P6SM BKN100
     FM210930 31009KT P6SM SCT100
     FM211400 32018G25KT P6SM FEW040=

USA.gov is the U.S. government's official web portal to all federal, state and local government web resources and services.